Time;durP1;ratioP1;P1;durP2;ratioP2;P2;SDS_P1;SDS_P2;PMS_P1;PMS_P2;Temp;Humidity;BMP_temperature;BMP_pressure;BME280_temperature;BME280_humidity;BME280_pressure;Samples;Min_cycle;Max_cycle;Signal;HPM_P1;HPM_P2
2023/06/25 00:00:33;;;;;;;2.75;2.47;;;22.40;53.30;;;;;;5039155;28;20051;-91
2023/06/25 00:03:01;;;;;;;3.10;2.80;;;22.30;53.30;;;;;;5041274;28;20076;-91
2023/06/25 00:05:28;;;;;;;2.63;2.42;;;22.50;53.60;;;;;;5030138;28;20055;-92
2023/06/25 00:07:55;;;;;;;5.93;2.28;;;22.40;53.50;;;;;;5043060;28;20040;-92
2023/06/25 00:10:22;;;;;;;2.72;2.33;;;22.40;53.70;;;;;;5035141;28;20052;-93
2023/06/25 00:12:48;;;;;;;4.00;2.55;;;22.40;53.80;;;;;;5042239;28;20576;-91
2023/06/25 00:15:15;;;;;;;3.28;2.53;;;22.30;53.90;;;;;;5039477;28;20052;-92
2023/06/25 00:17:47;;;;;;;2.95;2.30;;;22.30;54.10;;;;;;5030656;28;20053;-92
2023/06/25 00:20:15;;;;;;;2.38;2.05;;;22.10;54.00;;;;;;5045538;28;20053;-92
2023/06/25 00:22:43;;;;;;;3.63;2.60;;;22.20;54.10;;;;;;5032544;28;20568;-92
2023/06/25 00:25:30;;;;;;;7.00;2.10;;;22.20;54.30;;;;;;5041600;28;20052;-92
2023/06/25 00:27:57;;;;;;;5.00;2.45;;;22.20;54.30;;;;;;5021544;28;20041;-93
2023/06/25 00:30:25;;;;;;;3.25;2.53;;;22.00;54.40;;;;;;5037322;28;20099;-92
2023/06/25 00:32:54;;;;;;;9.27;2.55;;;22.10;54.60;;;;;;5025487;28;20073;-92
2023/06/25 00:35:26;;;;;;;5.30;2.65;;;22.10;54.60;;;;;;5051009;28;20053;-91
2023/06/25 00:37:57;;;;;;;4.55;2.58;;;22.00;54.60;;;;;;5033352;28;20052;-92
2023/06/25 00:40:25;;;;;;;4.88;2.78;;;21.90;54.60;;;;;;5048094;28;20053;-92
2023/06/25 00:42:58;;;;;;;3.85;2.42;;;21.90;54.70;;;;;;5023099;28;20033;-92
2023/06/25 00:45:26;;;;;;;4.82;2.40;;;22.00;54.90;;;;;;5040387;28;20048;-92
2023/06/25 00:47:54;;;;;;;7.40;3.60;;;21.90;55.00;;;;;;5037422;28;20135;-92
2023/06/25 00:50:21;;;;;;;4.28;2.90;;;21.70;55.10;;;;;;5024945;28;20049;-92
2023/06/25 00:52:51;;;;;;;4.60;3.00;;;21.80;55.30;;;;;;5019667;28;20049;-92
2023/06/25 00:55:19;;;;;;;4.38;2.58;;;21.80;55.30;;;;;;5045043;28;20053;-93
2023/06/25 00:57:47;;;;;;;8.05;3.85;;;21.80;55.50;;;;;;5057156;28;20051;-91
2023/06/25 01:00:14;;;;;;;10.07;3.03;;;21.80;55.40;;;;;;5024616;28;20114;-92
2023/06/25 01:03:03;;;;;;;5.35;2.95;;;21.70;55.40;;;;;;5022711;28;20072;-93
2023/06/25 01:05:52;;;;;;;11.95;2.78;;;21.60;55.80;;;;;;5029287;28;20049;-91
2023/06/25 01:08:38;;;;;;;5.25;2.70;;;21.60;55.80;;;;;;5042960;28;20495;-92
2023/06/25 01:11:05;;;;;;;7.25;2.90;;;21.80;55.40;;;;;;5035017;28;20045;-92
2023/06/25 01:13:32;;;;;;;5.80;2.60;;;21.60;55.40;;;;;;5043068;28;20076;-92
2023/06/25 01:15:59;;;;;;;9.02;3.10;;;21.70;55.60;;;;;;5030896;28;20052;-93
2023/06/25 01:18:26;;;;;;;7.00;2.75;;;21.60;55.50;;;;;;5056571;28;20532;-92
2023/06/25 01:20:56;;;;;;;5.22;2.80;;;21.60;55.60;;;;;;5048365;28;20060;-92
2023/06/25 01:23:23;;;;;;;9.85;3.05;;;21.60;55.80;;;;;;5017133;28;20045;-91
2023/06/25 01:25:50;;;;;;;6.68;2.72;;;21.40;55.70;;;;;;5025800;28;20044;-92
2023/06/25 01:28:20;;;;;;;12.27;3.90;;;21.40;55.70;;;;;;5032449;28;20072;-92
2023/06/25 01:30:51;;;;;;;5.95;2.42;;;21.50;55.70;;;;;;5053182;28;20049;-93
2023/06/25 01:33:21;;;;;;;9.88;2.95;;;21.40;55.70;;;;;;5044236;28;20047;-93
2023/06/25 01:35:48;;;;;;;15.27;3.97;;;21.50;55.80;;;;;;5032424;28;20045;-92
2023/06/25 01:38:15;;;;;;;12.88;4.75;;;21.30;55.80;;;;;;5031602;28;20060;-92
2023/06/25 01:40:42;;;;;;;7.03;3.53;;;21.40;55.80;;;;;;5014080;28;20052;-93
2023/06/25 01:43:09;;;;;;;11.20;3.58;;;21.40;56.00;;;;;;5017260;28;20048;-91
2023/06/25 01:45:36;;;;;;;7.40;3.22;;;21.40;56.00;;;;;;5035797;28;20048;-94
2023/06/25 01:48:04;;;;;;;8.27;3.15;;;21.30;56.10;;;;;;5049687;28;20102;-93
2023/06/25 01:50:31;;;;;;;7.38;2.80;;;21.20;56.70;;;;;;5020056;28;20048;-93
2023/06/25 01:52:58;;;;;;;7.75;3.50;;;21.30;56.10;;;;;;5021451;28;20106;-91
2023/06/25 01:55:25;;;;;;;5.70;3.20;;;21.30;56.30;;;;;;5036366;28;20045;-92
2023/06/25 01:57:53;;;;;;;8.32;3.90;;;21.30;56.40;;;;;;5016588;28;20148;-93
2023/06/25 02:00:20;;;;;;;17.50;5.22;;;21.20;56.40;;;;;;5047229;28;20041;-92
2023/06/25 02:03:00;;;;;;;7.65;3.35;;;21.10;56.40;;;;;;5029994;28;20584;-92
2023/06/25 02:05:27;;;;;;;6.60;3.47;;;21.20;56.50;;;;;;5023261;28;20081;-92
2023/06/25 02:07:54;;;;;;;4.60;3.13;;;21.00;56.50;;;;;;5031638;28;20036;-92
2023/06/25 02:10:21;;;;;;;9.25;4.65;;;21.10;56.50;;;;;;5056683;28;20086;-93
2023/06/25 02:12:48;;;;;;;7.53;3.00;;;20.90;56.50;;;;;;5047884;28;20090;-92
2023/06/25 02:15:15;;;;;;;6.13;3.58;;;20.90;56.60;;;;;;5020414;28;20423;-93
2023/06/25 02:17:42;;;;;;;11.77;3.97;;;21.10;56.70;;;;;;5054082;28;20052;-93
2023/06/25 02:20:09;;;;;;;15.02;4.20;;;21.00;56.70;;;;;;5031101;28;20098;-93
2023/06/25 02:22:36;;;;;;;9.73;3.72;;;20.90;56.70;;;;;;5038954;28;20511;-93
2023/06/25 02:25:03;;;;;;;8.88;4.32;;;20.80;56.70;;;;;;5011992;28;20041;-92
2023/06/25 02:27:30;;;;;;;6.93;3.40;;;20.80;56.90;;;;;;5043875;28;20056;-93
2023/06/25 02:29:57;;;;;;;6.50;3.58;;;20.80;56.80;;;;;;5047574;28;20044;-93
2023/06/25 02:32:24;;;;;;;8.20;3.88;;;20.90;57.00;;;;;;5048458;28;20049;-93
2023/06/25 02:34:51;;;;;;;9.63;3.70;;;20.80;57.00;;;;;;5027687;28;20396;-92
2023/06/25 02:37:18;;;;;;;12.75;3.83;;;20.70;57.00;;;;;;5019833;28;20099;-93
2023/06/25 02:40:39;;;;;;;9.30;3.80;;;20.90;57.20;;;;;;5041692;28;20068;-93
2023/06/25 02:44:21;;;;;;;;;;;;;;;;;;;;;
2023/06/25 02:47:16;;;;;;;13.25;3.75;;;20.70;57.30;;;;;;5048632;28;20079;-92
2023/06/25 02:49:43;;;;;;;9.98;3.13;;;20.70;56.60;;;;;;5053530;28;20112;-92
2023/06/25 02:52:10;;;;;;;9.35;3.67;;;20.60;56.90;;;;;;5033358;28;20048;-92
2023/06/25 02:54:37;;;;;;;8.73;3.55;;;20.70;57.00;;;;;;5033947;28;20561;-92
2023/06/25 02:57:04;;;;;;;12.93;4.63;;;20.80;57.20;;;;;;5034455;28;20561;-92
2023/06/25 02:59:31;;;;;;;12.50;4.00;;;20.60;57.20;;;;;;5040247;28;20509;-93
2023/06/25 03:01:58;;;;;;;8.50;3.53;;;20.70;57.30;;;;;;5024614;28;20048;-92
2023/06/25 03:04:41;;;;;;;8.73;3.78;;;20.70;57.50;;;;;;5047245;28;20088;-91
2023/06/25 03:08:00;;;;;;;;;;;;;;;;;;;;;
2023/06/25 03:11:03;;;;;;;7.22;3.63;;;20.50;57.40;;;;;;5064575;28;20107;-92
2023/06/25 03:14:13;;;;;;;;;;;;;;;;;;;;;
2023/06/25 03:17:28;;;;;;;14.07;3.88;;;20.50;57.40;;;;;;5033168;28;20148;-92
2023/06/25 03:20:07;;;;;;;18.42;4.25;;;20.50;57.70;;;;;;5021815;28;20131;-92
2023/06/25 03:23:19;;;;;;;15.73;4.05;;;20.40;57.20;;;;;;5013559;28;20053;-92
2023/06/25 03:26:15;;;;;;;23.50;5.50;;;20.40;57.60;;;;;;5041722;28;20037;-93
2023/06/25 03:28:43;;;;;;;9.07;3.97;;;20.50;57.40;;;;;;5039745;28;20064;-92
2023/06/25 03:31:10;;;;;;;12.20;4.85;;;20.50;57.60;;;;;;5051365;28;20094;-92
2023/06/25 03:34:04;;;;;;;16.85;5.22;;;20.50;57.70;;;;;;5034265;28;20049;-92
2023/06/25 03:36:35;;;;;;;14.85;4.30;;;20.30;58.30;;;;;;5030715;28;20079;-92
2023/06/25 03:39:05;;;;;;;9.43;4.22;;;20.40;57.90;;;;;;5030635;28;20053;-92
2023/06/25 03:44:28;;;;;;;8.57;3.85;;;20.30;58.50;;;;;;5056384;28;20139;-93
2023/06/25 03:47:21;;;;;;;5.97;4.18;;;20.30;58.30;;;;;;5026228;28;20070;-92
2023/06/25 03:49:48;;;;;;;5.93;3.42;;;20.40;58.70;;;;;;5050024;28;20128;-92
2023/06/25 03:52:15;;;;;;;5.22;3.90;;;20.40;58.60;;;;;;5043882;28;20045;-92
2023/06/25 03:54:45;;;;;;;6.00;3.40;;;20.10;58.70;;;;;;5026389;28;20076;-92
2023/06/25 03:57:28;;;;;;;4.00;3.60;;;20.40;59.40;;;;;;5057813;28;20056;-92
2023/06/25 04:00:24;;;;;;;5.38;3.70;;;20.30;59.70;;;;;;5039476;28;20054;-93
2023/06/25 04:03:54;;;;;;;3.90;3.50;;;20.30;59.40;;;;;;5038622;28;20052;-92
2023/06/25 04:07:04;;;;;;;4.80;3.53;;;20.40;59.80;;;;;;5012034;28;20056;-92
2023/06/25 04:10:32;;;;;;;4.82;4.03;;;20.40;60.10;;;;;;5028796;28;20048;-92
2023/06/25 04:13:32;;;;;;;5.72;3.88;;;20.30;60.20;;;;;;5015981;28;20092;-92
2023/06/25 04:16:30;;;;;;;5.30;3.22;;;20.40;59.40;;;;;;4974741;28;20038;-92
2023/06/25 04:19:46;;;;;;;4.68;3.70;;;20.30;60.40;;;;;;4981321;28;20042;-92
2023/06/25 04:23:10;;;;;;;5.70;3.60;;;20.50;60.50;;;;;;4982396;28;20650;-92
2023/06/25 04:32:54;;;;;;;4.00;3.58;;;20.60;60.40;;;;;;5005748;28;20408;-93
2023/06/25 04:36:07;;;;;;;4.75;3.40;;;20.70;61.00;;;;;;5034237;28;20044;-92
2023/06/25 04:39:29;;;;;;;5.82;4.25;;;20.60;60.50;;;;;;5051996;28;20390;-93
2023/06/25 04:42:38;;;;;;;4.05;3.50;;;20.60;60.40;;;;;;5024660;28;20037;-92
2023/06/25 04:45:49;;;;;;;6.68;3.83;;;20.70;60.80;;;;;;5066078;28;20040;-91
2023/06/25 04:48:38;;;;;;;6.45;4.05;;;20.90;61.20;;;;;;5038925;28;20041;-92
2023/06/25 04:51:50;;;;;;;4.45;4.05;;;21.00;60.80;;;;;;5056295;28;20707;-92
2023/06/25 04:54:37;;;;;;;6.25;4.70;;;21.00;61.50;;;;;;5035293;28;20086;-91
2023/06/25 04:57:04;;;;;;;4.57;3.72;;;21.00;60.70;;;;;;5029399;28;20049;-93
2023/06/25 04:59:31;;;;;;;7.55;4.35;;;20.90;61.10;;;;;;5040097;28;20530;-91
2023/06/25 05:01:58;;;;;;;4.93;3.90;;;21.10;61.30;;;;;;5022493;28;20040;-92
2023/06/25 05:09:03;;;;;;;6.40;4.47;;;21.20;62.00;;;;;;5043700;28;20044;-93
2023/06/25 05:13:09;;;;;;;5.03;3.28;;;21.10;62.30;;;;;;4971410;28;20417;-92
2023/06/25 05:16:28;;;;;;;6.05;3.78;;;21.00;62.30;;;;;;4968340;28;20298;-92
2023/06/25 05:19:14;;;;;;;6.43;3.97;;;21.30;62.10;;;;;;4969171;28;20039;-92
2023/06/25 05:22:11;;;;;;;9.82;4.43;;;21.40;62.70;;;;;;5012587;28;20142;-92
2023/06/25 05:24:38;;;;;;;6.53;3.80;;;21.50;62.10;;;;;;5032593;28;20037;-91
2023/06/25 05:27:05;;;;;;;10.60;4.97;;;21.40;62.40;;;;;;5055457;28;20134;-92
2023/06/25 05:29:32;;;;;;;9.07;4.57;;;21.40;62.50;;;;;;5047704;28;20045;-91
2023/06/25 05:31:59;;;;;;;9.15;4.70;;;21.60;62.90;;;;;;5019941;28;20037;-93
2023/06/25 05:34:26;;;;;;;8.20;3.78;;;21.60;63.00;;;;;;5044723;28;20473;-92
2023/06/25 05:41:15;;;;;;;12.60;3.88;;;21.70;63.70;;;;;;5040149;28;20081;-91
2023/06/25 05:43:59;;;;;;;10.15;3.92;;;21.80;63.20;;;;;;5032386;28;20040;-92
2023/06/25 05:49:50;;;;;;;13.00;3.63;;;22.00;63.10;;;;;;5068860;28;20173;-93
2023/06/25 05:52:17;;;;;;;8.68;4.40;;;22.10;62.50;;;;;;5040771;28;20048;-93
2023/06/25 05:54:44;;;;;;;11.18;4.57;;;22.20;62.70;;;;;;5014918;28;20069;-92
2023/06/25 05:57:12;;;;;;;7.35;3.38;;;22.20;61.80;;;;;;5034818;28;20052;-92
2023/06/25 05:59:41;;;;;;;11.52;4.68;;;22.10;61.80;;;;;;5030550;28;20044;-92
2023/06/25 06:02:08;;;;;;;11.43;4.18;;;22.40;62.30;;;;;;5030713;28;20045;-93
2023/06/25 06:04:36;;;;;;;9.88;4.47;;;22.40;62.30;;;;;;5030773;28;20045;-93
2023/06/25 06:07:03;;;;;;;9.13;3.30;;;22.30;61.40;;;;;;5034697;28;20060;-92
2023/06/25 06:09:30;;;;;;;8.52;3.65;;;22.40;61.40;;;;;;5049957;28;20044;-92
2023/06/25 06:12:28;;;;;;;6.90;3.88;;;22.50;61.20;;;;;;5046348;28;20052;-91
2023/06/25 06:16:08;;;;;;;13.77;4.10;;;22.60;60.90;;;;;;5047798;28;20047;-92
2023/06/25 06:23:31;;;;;;;7.13;3.50;;;22.80;60.00;;;;;;5039871;28;20495;-92
2023/06/25 06:26:44;;;;;;;;;;;22.90;60.10;;;;;;5042170;28;20087;-92
2023/06/25 06:34:44;;;;;;;8.40;3.58;;;23.10;58.70;;;;;;5047486;28;20044;-93
2023/06/25 06:41:43;;;;;;;8.57;3.40;;;23.40;58.50;;;;;;5054049;28;20506;-93
2023/06/25 06:44:15;;;;;;;9.20;2.90;;;23.40;57.70;;;;;;5022240;28;20144;-92
2023/06/25 06:46:43;;;;;;;9.95;3.50;;;23.30;57.60;;;;;;5055280;28;20041;-93
2023/06/25 06:49:10;;;;;;;6.82;3.25;;;23.40;57.80;;;;;;5030716;28;20041;-93
2023/06/25 06:51:38;;;;;;;7.45;3.33;;;23.50;57.60;;;;;;5047247;28;20045;-92
2023/06/25 06:54:05;;;;;;;6.15;3.20;;;23.50;57.40;;;;;;5023555;28;20052;-93
2023/06/25 06:56:34;;;;;;;8.90;4.00;;;23.80;57.50;;;;;;5033155;28;20041;-93
2023/06/25 07:03:21;;;;;;;4.88;3.13;;;23.80;57.40;;;;;;5060425;22;20056;-49
2023/06/25 07:05:48;;;;;;;4.88;3.40;;;23.90;57.20;;;;;;5028078;28;20057;-51
2023/06/25 07:08:15;;;;;;;3.95;3.33;;;24.00;56.60;;;;;;5016494;28;20049;-51
2023/06/25 07:10:46;;;;;;;6.90;4.40;;;24.00;56.60;;;;;;5029310;28;20417;-52
2023/06/25 07:13:15;;;;;;;6.18;3.50;;;24.10;57.00;;;;;;5032977;28;20099;-51
2023/06/25 07:15:41;;;;;;;5.55;3.42;;;24.20;56.70;;;;;;5032233;28;20439;-50
2023/06/25 07:18:10;;;;;;;5.15;3.58;;;24.30;56.80;;;;;;5031241;28;20116;-50
2023/06/25 07:20:37;;;;;;;8.57;3.45;;;24.30;56.50;;;;;;5030102;28;20116;-50
2023/06/25 07:23:03;;;;;;;4.75;3.80;;;24.40;56.10;;;;;;5030281;28;20042;-50
2023/06/25 07:25:30;;;;;;;4.43;3.47;;;24.50;56.10;;;;;;5028426;28;20061;-48
2023/06/25 07:28:08;;;;;;;8.82;4.13;;;24.50;55.70;;;;;;5032455;28;20042;-52
2023/06/25 07:30:35;;;;;;;4.90;3.75;;;24.60;56.10;;;;;;5032295;28;20041;-48
2023/06/25 07:33:03;;;;;;;7.63;4.03;;;24.70;55.80;;;;;;5026628;28;20070;-52
2023/06/25 07:35:33;;;;;;;5.95;4.22;;;24.80;55.50;;;;;;5032436;28;20033;-51
2023/06/25 07:38:06;;;;;;;4.97;3.60;;;24.80;55.20;;;;;;5031690;28;20061;-51
2023/06/25 07:40:39;;;;;;;9.10;3.65;;;24.90;55.20;;;;;;5014370;28;20141;-52
2023/06/25 07:43:06;;;;;;;4.82;3.67;;;25.00;54.90;;;;;;5029568;28;20118;-49
2023/06/25 07:45:33;;;;;;;4.60;4.05;;;25.10;54.90;;;;;;5031868;28;20072;-48
2023/06/25 07:47:59;;;;;;;4.18;3.17;;;25.10;55.00;;;;;;5032317;28;20096;-51
2023/06/25 07:50:26;;;;;;;7.25;4.07;;;25.20;55.00;;;;;;5037324;28;20044;-48
2023/06/25 07:52:53;;;;;;;3.88;3.47;;;25.30;55.40;;;;;;5022801;28;20045;-50
2023/06/25 07:55:22;;;;;;;5.82;4.18;;;25.30;55.30;;;;;;5029279;28;20076;-47
2023/06/25 07:57:48;;;;;;;4.07;3.28;;;25.40;55.10;;;;;;5032317;28;20033;-51
2023/06/25 08:00:18;;;;;;;5.45;4.00;;;25.50;55.10;;;;;;5031561;28;20072;-51
2023/06/25 08:02:47;;;;;;;4.43;4.03;;;25.60;53.50;;;;;;5031213;28;20049;-51
2023/06/25 08:05:16;;;;;;;5.50;4.10;;;25.60;53.20;;;;;;5028315;28;20052;-51
2023/06/25 08:07:48;;;;;;;4.50;4.10;;;25.70;53.40;;;;;;5031905;28;20053;-49
2023/06/25 08:10:15;;;;;;;5.13;4.40;;;25.80;53.80;;;;;;5026849;28;20708;-52
2023/06/25 08:12:42;;;;;;;4.38;3.88;;;26.10;53.70;;;;;;5032172;28;20124;-52
2023/06/25 08:15:09;;;;;;;5.63;4.30;;;26.00;53.00;;;;;;5032711;28;20121;-51
2023/06/25 08:17:38;;;;;;;5.40;4.45;;;26.00;51.90;;;;;;5026364;28;20057;-52
2023/06/25 08:20:05;;;;;;;4.60;4.20;;;26.20;51.20;;;;;;5015751;28;20533;-50
2023/06/25 08:22:32;;;;;;;5.60;3.83;;;26.20;50.00;;;;;;5030666;28;20490;-52
2023/06/25 08:24:58;;;;;;;4.05;3.65;;;26.30;50.10;;;;;;5023170;28;20124;-48
2023/06/25 08:27:25;;;;;;;4.57;4.13;;;26.40;51.00;;;;;;5033691;28;20045;-50
2023/06/25 08:29:52;;;;;;;4.63;3.85;;;26.50;49.60;;;;;;5034252;28;20125;-47
2023/06/25 08:32:18;;;;;;;4.28;3.88;;;26.50;49.90;;;;;;5029327;28;20041;-52
2023/06/25 08:34:45;;;;;;;3.97;3.60;;;26.70;49.30;;;;;;5027186;28;20427;-50
2023/06/25 08:37:11;;;;;;;5.05;4.13;;;26.70;48.30;;;;;;5030884;28;20042;-52
2023/06/25 08:39:38;;;;;;;4.13;3.65;;;26.80;49.30;;;;;;5030145;28;20049;-51
2023/06/25 08:42:05;;;;;;;4.07;3.72;;;26.90;47.80;;;;;;5027579;28;20059;-51
2023/06/25 08:44:32;;;;;;;5.63;4.18;;;27.00;47.50;;;;;;5031513;28;20268;-51
2023/06/25 08:46:59;;;;;;;4.45;4.05;;;27.00;47.00;;;;;;5030761;28;20037;-52
2023/06/25 08:49:29;;;;;;;4.53;4.13;;;27.10;46.50;;;;;;5030241;28;20586;-50
2023/06/25 08:51:59;;;;;;;5.18;4.68;;;27.20;46.90;;;;;;5026129;28;20042;-52
2023/06/25 08:54:26;;;;;;;4.82;4.15;;;27.30;47.20;;;;;;5020195;28;20033;-51
2023/06/25 08:56:52;;;;;;;4.45;4.05;;;27.40;46.50;;;;;;5028559;28;20040;-50
2023/06/25 08:59:19;;;;;;;4.57;4.13;;;27.50;46.90;;;;;;5029966;28;20112;-50
2023/06/25 09:01:46;;;;;;;5.15;4.35;;;27.50;45.90;;;;;;5027080;28;20563;-52
2023/06/25 09:04:12;;;;;;;3.95;3.55;;;27.60;45.30;;;;;;5012623;28;20037;-52
2023/06/25 09:06:40;;;;;;;4.85;4.35;;;27.60;46.30;;;;;;5029901;28;20099;-52
2023/06/25 09:09:27;;;;;;;4.53;3.88;;;27.70;46.20;;;;;;5013335;28;20065;-51
2023/06/25 09:11:54;;;;;;;4.32;3.90;;;27.70;46.20;;;;;;5024853;28;20105;-52
2023/06/25 09:14:20;;;;;;;4.60;4.15;;;27.80;45.70;;;;;;5030734;28;20037;-51
2023/06/25 09:16:49;;;;;;;4.47;4.05;;;27.80;46.20;;;;;;5029505;28;20052;-52
2023/06/25 09:19:19;;;;;;;4.60;4.20;;;27.90;46.20;;;;;;5021305;28;20051;-51
2023/06/25 09:21:47;;;;;;;5.55;3.85;;;28.00;46.40;;;;;;5026524;28;20052;-51
2023/06/25 09:24:15;;;;;;;4.35;3.95;;;28.00;46.20;;;;;;5030457;28;20038;-51
2023/06/25 09:26:45;;;;;;;5.97;4.10;;;28.00;45.90;;;;;;5029479;28;20041;-53
2023/06/25 09:29:12;;;;;;;4.25;3.85;;;28.10;46.00;;;;;;5027598;28;20045;-51
2023/06/25 09:31:46;;;;;;;4.22;3.90;;;28.20;45.40;;;;;;5028107;28;20041;-52
2023/06/25 09:34:15;;;;;;;4.25;3.85;;;28.20;45.40;;;;;;5027092;28;20061;-52
2023/06/25 09:36:42;;;;;;;4.18;3.88;;;28.30;45.50;;;;;;5036783;28;20120;-51
2023/06/25 09:39:10;;;;;;;4.97;4.00;;;28.30;45.00;;;;;;5031360;28;20046;-50
2023/06/25 09:41:40;;;;;;;4.88;4.03;;;28.40;45.20;;;;;;5026736;28;20080;-52
2023/06/25 09:44:07;;;;;;;4.60;4.20;;;28.40;45.00;;;;;;5029902;28;20068;-50
2023/06/25 09:46:36;;;;;;;5.15;4.65;;;28.50;46.00;;;;;;5028792;28;20088;-51
2023/06/25 09:49:04;;;;;;;4.78;4.32;;;28.50;46.20;;;;;;4987465;28;20541;-51
2023/06/25 09:51:37;;;;;;;4.50;4.10;;;28.60;45.40;;;;;;5024703;28;20120;-51
2023/06/25 09:54:08;;;;;;;4.80;4.30;;;28.60;45.10;;;;;;5026931;23;20506;-52
2023/06/25 09:56:38;;;;;;;4.47;4.07;;;28.70;44.70;;;;;;5009329;28;20077;-51
2023/06/25 09:59:07;;;;;;;4.13;3.83;;;28.70;44.40;;;;;;5009620;28;20125;-50
2023/06/25 10:01:35;;;;;;;5.18;4.00;;;28.80;44.80;;;;;;5007530;28;20038;-51
2023/06/25 10:04:04;;;;;;;3.65;3.38;;;28.80;44.30;;;;;;4992052;28;20063;-47
2023/06/25 10:06:34;;;;;;;;;;;28.90;45.00;;;;;;5004999;28;20524;-48
2023/06/25 10:09:04;;;;;;;3.83;3.55;;;29.00;45.30;;;;;;5011320;28;19991;-48
2023/06/25 10:11:31;;;;;;;3.83;3.53;;;29.10;43.60;;;;;;5009410;28;20034;-51
2023/06/25 10:13:59;;;;;;;6.57;4.38;;;29.20;44.10;;;;;;5009452;28;20501;-51
2023/06/25 10:16:32;;;;;;;4.50;4.13;;;29.20;43.30;;;;;;5009333;28;20080;-49
2023/06/25 10:19:06;;;;;;;5.75;4.38;;;29.20;43.30;;;;;;5012169;28;20132;-51
2023/06/25 10:21:33;;;;;;;6.00;4.63;;;29.20;43.60;;;;;;5009439;28;20075;-52
2023/06/25 10:24:01;;;;;;;5.55;4.45;;;29.30;43.20;;;;;;5014781;28;20060;-52
2023/06/25 10:26:30;;;;;;;4.38;3.85;;;29.40;42.90;;;;;;5008844;28;20642;-52
2023/06/25 10:29:04;;;;;;;4.70;4.25;;;29.40;42.60;;;;;;5006536;28;20038;-52
2023/06/25 10:31:38;;;;;;;4.45;4.05;;;29.50;42.10;;;;;;5008379;28;20065;-52
2023/06/25 10:34:07;;;;;;;4.80;4.20;;;29.60;43.20;;;;;;5011550;28;20096;-51
2023/06/25 10:36:34;;;;;;;3.97;3.67;;;29.60;41.70;;;;;;5008969;28;20041;-52
2023/06/25 10:39:01;;;;;;;4.45;4.05;;;29.70;42.80;;;;;;5009635;28;20042;-51
2023/06/25 10:41:32;;;;;;;4.95;4.03;;;29.70;43.10;;;;;;5008429;28;20299;-50
2023/06/25 10:43:58;;;;;;;4.50;4.10;;;29.80;43.40;;;;;;5010812;28;20050;-51
2023/06/25 10:46:32;;;;;;;5.13;3.88;;;29.80;43.20;;;;;;5008879;28;20053;-51
2023/06/25 10:49:05;;;;;;;4.57;4.18;;;29.90;42.40;;;;;;5009165;28;20060;-47
2023/06/25 10:51:34;;;;;;;;;;;30.00;41.90;;;;;;5007363;28;20108;-51
2023/06/25 10:54:00;;;;;;;5.00;4.53;;;30.10;42.70;;;;;;5015117;28;20020;-51
2023/06/25 10:56:27;;;;;;;4.95;4.45;;;30.20;41.40;;;;;;5008932;28;20046;-49
2023/06/25 10:58:57;;;;;;;4.63;3.95;;;30.20;41.00;;;;;;5008407;28;20069;-50
2023/06/25 11:01:25;;;;;;;4.10;3.80;;;30.20;41.70;;;;;;5000518;28;20473;-52
2023/06/25 11:03:53;;;;;;;6.30;4.40;;;30.20;42.20;;;;;;5013291;28;20506;-51
2023/06/25 11:06:20;;;;;;;5.00;4.60;;;30.30;42.50;;;;;;5007087;28;20504;-51
2023/06/25 11:08:47;;;;;;;4.88;4.20;;;30.30;42.70;;;;;;5008983;28;20038;-51
2023/06/25 11:11:15;;;;;;;5.13;4.32;;;30.40;42.90;;;;;;4995371;28;20607;-48
2023/06/25 11:13:47;;;;;;;4.00;3.60;;;30.50;42.50;;;;;;5008812;28;20044;-50
2023/06/25 11:16:14;;;;;;;5.57;4.15;;;30.60;42.00;;;;;;5008363;28;20038;-48
2023/06/25 11:18:41;;;;;;;4.15;3.80;;;30.70;42.90;;;;;;5009543;28;20059;-51
2023/06/25 11:21:08;;;;;;;4.35;3.95;;;30.80;42.20;;;;;;5011059;28;20132;-52
2023/06/25 11:23:35;;;;;;;4.35;4.00;;;31.00;41.40;;;;;;5012338;28;20498;-51
2023/06/25 11:26:06;;;;;;;5.32;4.30;;;31.10;42.00;;;;;;5011716;28;20041;-50
2023/06/25 11:28:37;;;;;;;5.13;3.88;;;31.30;41.60;;;;;;5013132;28;20045;-51
2023/06/25 11:31:05;;;;;;;4.70;4.30;;;31.40;41.80;;;;;;5013762;28;20050;-52
2023/06/25 11:33:31;;;;;;;4.30;3.90;;;31.50;41.50;;;;;;5012354;28;20044;-50
2023/06/25 11:36:09;;;;;;;4.53;4.13;;;31.60;40.80;;;;;;5012344;28;20053;-51
2023/06/25 11:38:36;;;;;;;3.90;3.50;;;31.80;40.50;;;;;;5004881;28;20065;-52
2023/06/25 11:41:06;;;;;;;4.15;3.85;;;31.80;40.60;;;;;;5018676;28;20479;-52
2023/06/25 11:43:34;;;;;;;4.38;3.97;;;31.90;41.00;;;;;;5013008;28;20136;-51
2023/06/25 11:46:02;;;;;;;4.50;4.10;;;31.90;40.50;;;;;;5011900;28;20769;-51
2023/06/25 11:48:29;;;;;;;3.97;3.67;;;31.90;40.40;;;;;;5002322;28;20473;-51
2023/06/25 11:51:06;;;;;;;4.40;4.00;;;32.00;40.70;;;;;;5013625;28;20053;-52
2023/06/25 11:53:33;;;;;;;4.15;3.85;;;32.00;40.50;;;;;;4992763;28;20064;-51
2023/06/25 11:56:00;;;;;;;5.13;4.40;;;32.10;39.90;;;;;;5012370;28;20046;-52
2023/06/25 11:58:28;;;;;;;4.32;3.92;;;32.20;41.10;;;;;;5003938;28;20044;-52
2023/06/25 12:00:55;;;;;;;3.80;3.55;;;32.40;40.40;;;;;;5011243;28;20041;-52
2023/06/25 12:03:22;;;;;;;4.53;3.92;;;32.60;40.40;;;;;;5012479;28;20104;-52
2023/06/25 12:05:49;;;;;;;4.63;4.22;;;32.70;38.90;;;;;;4993567;28;20605;-51
2023/06/25 12:08:16;;;;;;;4.80;4.40;;;32.90;38.80;;;;;;5011754;28;20069;-53
2023/06/25 12:10:42;;;;;;;4.35;4.03;;;33.00;38.60;;;;;;5014531;28;20034;-52
2023/06/25 12:13:09;;;;;;;4.03;3.72;;;33.10;37.80;;;;;;5014420;28;20516;-52
2023/06/25 12:15:36;;;;;;;3.90;3.60;;;33.20;38.20;;;;;;5010745;28;20493;-52
2023/06/25 12:18:03;;;;;;;4.25;3.95;;;33.20;38.00;;;;;;5019397;28;20050;-51
2023/06/25 12:20:30;;;;;;;4.78;4.38;;;33.30;38.50;;;;;;5012814;28;20042;-53
2023/06/25 12:22:57;;;;;;;4.60;4.20;;;33.40;38.70;;;;;;5012714;28;20569;-52
2023/06/25 12:25:24;;;;;;;4.57;3.97;;;33.40;38.80;;;;;;5009847;28;20073;-58
2023/06/25 12:27:53;;;;;;;4.30;3.92;;;33.40;39.10;;;;;;5010873;28;20233;-58
2023/06/25 12:30:22;;;;;;;4.22;3.60;;;33.50;37.90;;;;;;5010681;28;20156;-57
2023/06/25 12:32:49;;;;;;;4.15;3.75;;;33.50;38.60;;;;;;5011404;28;20038;-57
2023/06/25 12:35:16;;;;;;;4.03;3.72;;;33.60;38.70;;;;;;5010581;28;20133;-58
2023/06/25 12:37:43;;;;;;;4.28;3.97;;;33.60;39.00;;;;;;5010458;28;20065;-58
2023/06/25 12:40:10;;;;;;;5.55;4.30;;;33.70;38.60;;;;;;5010421;28;20188;-56
2023/06/25 12:42:37;;;;;;;4.72;4.32;;;33.70;38.10;;;;;;5012761;28;20125;-58
2023/06/25 12:45:03;;;;;;;4.65;4.22;;;33.90;38.60;;;;;;5010412;28;20125;-56
2023/06/25 12:47:31;;;;;;;4.63;4.22;;;33.90;38.20;;;;;;5010649;28;20438;-58
2023/06/25 12:49:57;;;;;;;4.43;4.03;;;34.00;38.20;;;;;;5012574;28;20050;-58
2023/06/25 12:52:27;;;;;;;4.70;4.30;;;34.20;38.60;;;;;;5015501;28;20116;-57
2023/06/25 12:54:54;;;;;;;4.13;3.78;;;34.20;37.20;;;;;;5013390;28;20081;-59
2023/06/25 12:57:21;;;;;;;4.55;4.07;;;34.30;37.00;;;;;;5010151;28;20061;-58
2023/06/25 12:59:49;;;;;;;5.00;3.97;;;34.40;37.10;;;;;;5010524;28;20042;-57
2023/06/25 13:02:15;;;;;;;4.90;4.50;;;34.40;36.70;;;;;;5012011;28;20467;-58
2023/06/25 13:04:42;;;;;;;4.70;4.30;;;34.50;36.70;;;;;;5011619;28;20129;-57
2023/06/25 13:07:08;;;;;;;4.57;4.18;;;34.60;36.80;;;;;;5011558;28;20034;-57
2023/06/25 13:09:35;;;;;;;4.45;4.13;;;34.60;36.50;;;;;;5011432;28;20103;-57
2023/06/25 13:12:02;;;;;;;4.55;4.15;;;34.70;37.40;;;;;;5019130;28;20037;-58
2023/06/25 13:14:28;;;;;;;4.78;4.38;;;34.80;37.60;;;;;;5009429;28;20192;-57
2023/06/25 13:16:55;;;;;;;4.40;4.00;;;34.90;37.60;;;;;;5010916;28;20125;-58
2023/06/25 13:19:22;;;;;;;5.00;4.57;;;35.00;37.50;;;;;;5011205;28;20077;-57
2023/06/25 13:21:49;;;;;;;4.53;4.13;;;35.20;35.80;;;;;;5011640;28;20054;-59
2023/06/25 13:24:15;;;;;;;4.00;3.70;;;35.30;36.70;;;;;;5015260;28;20052;-58
2023/06/25 13:26:44;;;;;;;4.45;4.05;;;35.40;36.30;;;;;;5010620;28;20072;-59
2023/06/25 13:29:11;;;;;;;4.28;3.97;;;35.60;36.00;;;;;;4992257;28;20037;-59
2023/06/25 13:31:38;;;;;;;4.45;4.05;;;35.80;36.00;;;;;;5009972;28;20100;-57
2023/06/25 13:34:05;;;;;;;4.13;3.80;;;36.10;35.50;;;;;;5011357;28;20038;-55
2023/06/25 13:36:31;;;;;;;4.43;3.85;;;36.60;35.70;;;;;;5010053;28;20041;-59
2023/06/25 13:38:58;;;;;;;4.40;4.00;;;37.20;36.20;;;;;;5016876;28;20045;-59
2023/06/25 13:41:25;;;;;;;4.40;3.83;;;38.20;36.60;;;;;;5010207;28;20038;-58
2023/06/25 13:43:52;;;;;;;3.75;3.40;;;39.20;36.50;;;;;;5010509;28;20418;-58
2023/06/25 13:46:18;;;;;;;3.88;3.58;;;40.20;34.40;;;;;;5009800;28;20121;-58
2023/06/25 13:48:45;;;;;;;3.15;2.90;;;41.40;33.20;;;;;;5010564;28;20043;-58
2023/06/25 13:51:12;;;;;;;3.75;3.45;;;42.50;32.50;;;;;;5010733;28;20124;-56
2023/06/25 13:53:42;;;;;;;2.97;2.78;;;43.70;31.00;;;;;;5014663;28;20501;-59
2023/06/25 13:56:12;;;;;;;3.83;3.40;;;44.80;30.00;;;;;;5010916;28;20541;-58
2023/06/25 13:58:38;;;;;;;2.67;2.50;;;45.80;28.80;;;;;;5009365;28;20054;-58
2023/06/25 14:01:05;;;;;;;2.83;2.63;;;46.70;28.80;;;;;;5008409;28;20046;-58